sensor_id;sensor_type;location;lat;lon;timestamp;pressure;altitude;pressure_sealevel;temperature
77728;BMP280;68312;53.502;10.030;2023-07-31T00:01:18;101020.00;;;14.04
77728;BMP280;68312;53.502;10.030;2023-07-31T00:03:43;101017.81;;;14.06
77728;BMP280;68312;53.502;10.030;2023-07-31T00:06:08;101019.38;;;14.07
77728;BMP280;68312;53.502;10.030;2023-07-31T00:08:34;101022.78;;;14.07
77728;BMP280;68312;53.502;10.030;2023-07-31T00:10:59;101014.16;;;14.10
77728;BMP280;68312;53.502;10.030;2023-07-31T00:13:25;101015.63;;;14.08
77728;BMP280;68312;53.502;10.030;2023-07-31T00:15:50;101008.81;;;14.07
77728;BMP280;68312;53.502;10.030;2023-07-31T00:18:15;101009.03;;;14.02
77728;BMP280;68312;53.502;10.030;2023-07-31T00:20:41;101008.16;;;13.98
77728;BMP280;68312;53.502;10.030;2023-07-31T00:23:06;100999.81;;;13.96
77728;BMP280;68312;53.502;10.030;2023-07-31T00:28:44;100997.25;;;13.87
77728;BMP280;68312;53.502;10.030;2023-07-31T00:31:09;100998.69;;;13.85
77728;BMP280;68312;53.502;10.030;2023-07-31T00:33:36;101000.66;;;13.88
77728;BMP280;68312;53.502;10.030;2023-07-31T00:36:02;101001.88;;;13.90
77728;BMP280;68312;53.502;10.030;2023-07-31T00:38:27;100995.84;;;13.90
77728;BMP280;68312;53.502;10.030;2023-07-31T00:40:53;100990.56;;;13.90
77728;BMP280;68312;53.502;10.030;2023-07-31T00:43:18;100997.78;;;13.93
77728;BMP280;68312;53.502;10.030;2023-07-31T00:45:44;100994.16;;;13.97
77728;BMP280;68312;53.502;10.030;2023-07-31T00:48:09;100993.84;;;13.99
77728;BMP280;68312;53.502;10.030;2023-07-31T00:50:35;100989.00;;;14.01
77728;BMP280;68312;53.502;10.030;2023-07-31T00:53:01;100991.66;;;14.01
77728;BMP280;68312;53.502;10.030;2023-07-31T00:55:26;100985.16;;;13.98
77728;BMP280;68312;53.502;10.030;2023-07-31T00:57:52;100987.03;;;13.98
77728;BMP280;68312;53.502;10.030;2023-07-31T01:00:20;100992.75;;;14.00
77728;BMP280;68312;53.502;10.030;2023-07-31T01:02:47;100985.91;;;13.99
77728;BMP280;68312;53.502;10.030;2023-07-31T01:05:16;100971.94;;;13.98
77728;BMP280;68312;53.502;10.030;2023-07-31T01:07:52;100980.63;;;13.99
77728;BMP280;68312;53.502;10.030;2023-07-31T01:10:27;100975.66;;;13.97
77728;BMP280;68312;53.502;10.030;2023-07-31T01:13:00;100971.06;;;13.94
77728;BMP280;68312;53.502;10.030;2023-07-31T01:15:26;100965.47;;;13.96
77728;BMP280;68312;53.502;10.030;2023-07-31T01:17:52;100958.94;;;13.93
77728;BMP280;68312;53.502;10.030;2023-07-31T01:20:20;100968.75;;;13.93
77728;BMP280;68312;53.502;10.030;2023-07-31T01:26:11;100961.94;;;13.92
77728;BMP280;68312;53.502;10.030;2023-07-31T01:28:54;100957.31;;;13.89
77728;BMP280;68312;53.502;10.030;2023-07-31T01:31:24;100958.88;;;13.90
77728;BMP280;68312;53.502;10.030;2023-07-31T01:33:53;100946.09;;;13.92
77728;BMP280;68312;53.502;10.030;2023-07-31T01:36:22;100948.06;;;13.95
77728;BMP280;68312;53.502;10.030;2023-07-31T01:38:48;100937.59;;;13.98
77728;BMP280;68312;53.502;10.030;2023-07-31T01:41:17;100939.47;;;13.98
77728;BMP280;68312;53.502;10.030;2023-07-31T01:43:43;100939.59;;;14.01
77728;BMP280;68312;53.502;10.030;2023-07-31T01:46:10;100935.50;;;14.04
77728;BMP280;68312;53.502;10.030;2023-07-31T01:48:36;100938.47;;;14.02
77728;BMP280;68312;53.502;10.030;2023-07-31T01:51:02;100926.16;;;14.06
77728;BMP280;68312;53.502;10.030;2023-07-31T01:53:28;100922.72;;;14.06
77728;BMP280;68312;53.502;10.030;2023-07-31T01:55:57;100926.25;;;14.10
77728;BMP280;68312;53.502;10.030;2023-07-31T01:58:23;100922.53;;;14.11
77728;BMP280;68312;53.502;10.030;2023-07-31T02:01:06;100918.88;;;14.15
77728;BMP280;68312;53.502;10.030;2023-07-31T02:03:32;100914.47;;;14.19
77728;BMP280;68312;53.502;10.030;2023-07-31T02:05:57;100917.19;;;14.22
77728;BMP280;68312;53.502;10.030;2023-07-31T02:08:23;100910.81;;;14.23
77728;BMP280;68312;53.502;10.030;2023-07-31T02:10:48;100919.19;;;14.25
77728;BMP280;68312;53.502;10.030;2023-07-31T02:13:13;100904.97;;;14.30
77728;BMP280;68312;53.502;10.030;2023-07-31T02:19:20;100906.28;;;14.36
77728;BMP280;68312;53.502;10.030;2023-07-31T02:21:45;100900.75;;;14.41
77728;BMP280;68312;53.502;10.030;2023-07-31T02:24:10;100904.31;;;14.48
77728;BMP280;68312;53.502;10.030;2023-07-31T02:26:36;100889.59;;;14.47
77728;BMP280;68312;53.502;10.030;2023-07-31T02:29:01;100898.72;;;14.49
77728;BMP280;68312;53.502;10.030;2023-07-31T02:31:27;100894.97;;;14.50
77728;BMP280;68312;53.502;10.030;2023-07-31T02:33:52;100888.69;;;14.55
77728;BMP280;68312;53.502;10.030;2023-07-31T02:36:17;100884.47;;;14.54
77728;BMP280;68312;53.502;10.030;2023-07-31T02:38:43;100877.31;;;14.54
77728;BMP280;68312;53.502;10.030;2023-07-31T02:41:08;100892.22;;;14.59
77728;BMP280;68312;53.502;10.030;2023-07-31T02:43:34;100886.97;;;14.62
77728;BMP280;68312;53.502;10.030;2023-07-31T02:45:59;100886.66;;;14.64
77728;BMP280;68312;53.502;10.030;2023-07-31T02:52:05;100884.03;;;14.64
77728;BMP280;68312;53.502;10.030;2023-07-31T02:54:31;100877.97;;;14.63
77728;BMP280;68312;53.502;10.030;2023-07-31T02:56:56;100879.16;;;14.66
77728;BMP280;68312;53.502;10.030;2023-07-31T02:59:22;100874.94;;;14.65
77728;BMP280;68312;53.502;10.030;2023-07-31T03:01:47;100871.97;;;14.66
77728;BMP280;68312;53.502;10.030;2023-07-31T03:04:13;100873.50;;;14.67
77728;BMP280;68312;53.502;10.030;2023-07-31T03:06:38;100869.78;;;14.68
77728;BMP280;68312;53.502;10.030;2023-07-31T03:09:05;100867.66;;;14.73
77728;BMP280;68312;53.502;10.030;2023-07-31T03:11:30;100872.25;;;14.76
77728;BMP280;68312;53.502;10.030;2023-07-31T03:13:55;100864.75;;;14.78
77728;BMP280;68312;53.502;10.030;2023-07-31T03:16:21;100853.75;;;14.76
77728;BMP280;68312;53.502;10.030;2023-07-31T03:18:47;100860.69;;;14.81
77728;BMP280;68312;53.502;10.030;2023-07-31T03:21:12;100853.06;;;14.79
77728;BMP280;68312;53.502;10.030;2023-07-31T03:23:40;100851.28;;;14.83
77728;BMP280;68312;53.502;10.030;2023-07-31T03:26:07;100844.47;;;14.82
77728;BMP280;68312;53.502;10.030;2023-07-31T03:28:33;100846.00;;;14.83
77728;BMP280;68312;53.502;10.030;2023-07-31T03:30:58;100847.09;;;14.82
77728;BMP280;68312;53.502;10.030;2023-07-31T03:33:24;100843.78;;;14.85
77728;BMP280;68312;53.502;10.030;2023-07-31T03:35:51;100841.91;;;14.86
77728;BMP280;68312;53.502;10.030;2023-07-31T03:38:16;100837.81;;;14.88
77728;BMP280;68312;53.502;10.030;2023-07-31T03:40:42;100838.00;;;14.95
77728;BMP280;68312;53.502;10.030;2023-07-31T03:43:07;100839.34;;;15.04
77728;BMP280;68312;53.502;10.030;2023-07-31T03:45:33;100841.56;;;15.18
77728;BMP280;68312;53.502;10.030;2023-07-31T03:47:58;100838.72;;;15.11
77728;BMP280;68312;53.502;10.030;2023-07-31T03:50:23;100837.22;;;15.10
77728;BMP280;68312;53.502;10.030;2023-07-31T03:52:50;100842.50;;;15.10
77728;BMP280;68312;53.502;10.030;2023-07-31T03:55:16;100836.53;;;15.13
77728;BMP280;68312;53.502;10.030;2023-07-31T03:57:43;100838.41;;;15.12
77728;BMP280;68312;53.502;10.030;2023-07-31T04:00:09;100830.13;;;15.14
77728;BMP280;68312;53.502;10.030;2023-07-31T04:02:35;100828.34;;;15.18
77728;BMP280;68312;53.502;10.030;2023-07-31T04:05:01;100836.66;;;15.20
77728;BMP280;68312;53.502;10.030;2023-07-31T04:07:26;100840.47;;;15.19
77728;BMP280;68312;53.502;10.030;2023-07-31T04:09:52;100835.50;;;15.17
77728;BMP280;68312;53.502;10.030;2023-07-31T04:12:17;100843.84;;;15.19
77728;BMP280;68312;53.502;10.030;2023-07-31T04:14:43;100851.44;;;15.21
77728;BMP280;68312;53.502;10.030;2023-07-31T04:17:08;100844.28;;;15.21
77728;BMP280;68312;53.502;10.030;2023-07-31T04:19:34;100841.72;;;15.24
77728;BMP280;68312;53.502;10.030;2023-07-31T04:21:59;100833.94;;;15.31
77728;BMP280;68312;53.502;10.030;2023-07-31T04:24:25;100832.41;;;15.30
77728;BMP280;68312;53.502;10.030;2023-07-31T04:26:51;100826.06;;;15.35
77728;BMP280;68312;53.502;10.030;2023-07-31T04:29:17;100815.56;;;15.38
77728;BMP280;68312;53.502;10.030;2023-07-31T04:31:42;100815.13;;;15.36
77728;BMP280;68312;53.502;10.030;2023-07-31T04:34:08;100814.66;;;15.31
77728;BMP280;68312;53.502;10.030;2023-07-31T04:36:34;100820.69;;;15.31
77728;BMP280;68312;53.502;10.030;2023-07-31T04:39:00;100813.88;;;15.30
77728;BMP280;68312;53.502;10.030;2023-07-31T04:41:28;100814.56;;;15.27
77728;BMP280;68312;53.502;10.030;2023-07-31T04:43:54;100818.25;;;15.23
77728;BMP280;68312;53.502;10.030;2023-07-31T04:46:19;100813.72;;;15.24
77728;BMP280;68312;53.502;10.030;2023-07-31T04:48:44;100800.06;;;15.22
77728;BMP280;68312;53.502;10.030;2023-07-31T04:51:10;100796.22;;;15.19
77728;BMP280;68312;53.502;10.030;2023-07-31T04:53:36;100809.13;;;15.21
77728;BMP280;68312;53.502;10.030;2023-07-31T04:56:01;100807.22;;;15.21
77728;BMP280;68312;53.502;10.030;2023-07-31T04:58:27;100800.06;;;15.22
77728;BMP280;68312;53.502;10.030;2023-07-31T05:00:52;100801.59;;;15.23
77728;BMP280;68312;53.502;10.030;2023-07-31T05:03:18;100795.56;;;15.22
77728;BMP280;68312;53.502;10.030;2023-07-31T05:05:43;100782.66;;;15.21
77728;BMP280;68312;53.502;10.030;2023-07-31T05:08:08;100789.13;;;15.23
77728;BMP280;68312;53.502;10.030;2023-07-31T05:10:34;100794.75;;;15.22
77728;BMP280;68312;53.502;10.030;2023-07-31T05:12:59;100792.47;;;15.20
77728;BMP280;68312;53.502;10.030;2023-07-31T05:15:25;100803.81;;;15.21
77728;BMP280;68312;53.502;10.030;2023-07-31T05:17:50;100803.06;;;15.20
77728;BMP280;68312;53.502;10.030;2023-07-31T05:20:16;100796.31;;;15.23
77728;BMP280;68312;53.502;10.030;2023-07-31T05:22:41;100800.84;;;15.22
77728;BMP280;68312;53.502;10.030;2023-07-31T05:25:07;100794.75;;;15.22
77728;BMP280;68312;53.502;10.030;2023-07-31T05:27:33;100794.16;;;15.28
77728;BMP280;68312;53.502;10.030;2023-07-31T05:29:58;100796.81;;;15.28
77728;BMP280;68312;53.502;10.030;2023-07-31T05:32:24;100802.09;;;15.28
77728;BMP280;68312;53.502;10.030;2023-07-31T05:34:52;100799.84;;;15.30
77728;BMP280;68312;53.502;10.030;2023-07-31T05:37:19;100791.19;;;15.29
77728;BMP280;68312;53.502;10.030;2023-07-31T05:39:44;100802.50;;;15.30
77728;BMP280;68312;53.502;10.030;2023-07-31T05:42:10;100807.47;;;15.31
77728;BMP280;68312;53.502;10.030;2023-07-31T05:44:35;100802.94;;;15.32
77728;BMP280;68312;53.502;10.030;2023-07-31T05:47:01;100792.03;;;15.33
77728;BMP280;68312;53.502;10.030;2023-07-31T05:49:26;100794.38;;;15.38
77728;BMP280;68312;53.502;10.030;2023-07-31T05:51:52;100793.72;;;15.41
77728;BMP280;68312;53.502;10.030;2023-07-31T05:54:17;100786.19;;;15.43
77728;BMP280;68312;53.502;10.030;2023-07-31T05:56:42;100784.03;;;15.49
77728;BMP280;68312;53.502;10.030;2023-07-31T05:59:09;100783.56;;;15.43
77728;BMP280;68312;53.502;10.030;2023-07-31T06:01:37;100778.75;;;15.49
77728;BMP280;68312;53.502;10.030;2023-07-31T06:04:02;100772.81;;;15.55
77728;BMP280;68312;53.502;10.030;2023-07-31T06:06:28;100770.97;;;15.55
77728;BMP280;68312;53.502;10.030;2023-07-31T06:08:54;100771.44;;;15.61
77728;BMP280;68312;53.502;10.030;2023-07-31T06:11:20;100766.16;;;15.61
77728;BMP280;68312;53.502;10.030;2023-07-31T06:13:46;100771.16;;;15.66
77728;BMP280;68312;53.502;10.030;2023-07-31T06:19:53;100768.16;;;15.67
77728;BMP280;68312;53.502;10.030;2023-07-31T06:22:19;100769.75;;;15.72
77728;BMP280;68312;53.502;10.030;2023-07-31T06:24:44;100773.34;;;15.79
77728;BMP280;68312;53.502;10.030;2023-07-31T06:27:10;100768.50;;;15.84
77728;BMP280;68312;53.502;10.030;2023-07-31T06:29:36;100767.75;;;15.84
77728;BMP280;68312;53.502;10.030;2023-07-31T06:32:02;100771.94;;;15.85
77728;BMP280;68312;53.502;10.030;2023-07-31T06:34:27;100756.81;;;15.85
77728;BMP280;68312;53.502;10.030;2023-07-31T06:36:53;100772.31;;;15.87
77728;BMP280;68312;53.502;10.030;2023-07-31T06:39:18;100761.53;;;15.95
77728;BMP280;68312;53.502;10.030;2023-07-31T06:41:43;100762.31;;;15.96
77728;BMP280;68312;53.502;10.030;2023-07-31T06:47:50;100752.19;;;16.01
77728;BMP280;68312;53.502;10.030;2023-07-31T06:50:15;100758.81;;;16.10
77728;BMP280;68312;53.502;10.030;2023-07-31T06:52:40;100759.47;;;16.07
77728;BMP280;68312;53.502;10.030;2023-07-31T06:55:26;100766.31;;;16.08
77728;BMP280;68312;53.502;10.030;2023-07-31T06:57:53;100762.63;;;16.13
77728;BMP280;68312;53.502;10.030;2023-07-31T07:00:21;100760.72;;;16.13
77728;BMP280;68312;53.502;10.030;2023-07-31T07:02:48;100761.97;;;16.19
77728;BMP280;68312;53.502;10.030;2023-07-31T07:05:17;100766.53;;;16.19
77728;BMP280;68312;53.502;10.030;2023-07-31T07:07:43;100765.63;;;16.11
77728;BMP280;68312;53.502;10.030;2023-07-31T07:10:08;100769.72;;;16.09
77728;BMP280;68312;53.502;10.030;2023-07-31T07:12:34;100760.13;;;16.01
77728;BMP280;68312;53.502;10.030;2023-07-31T07:15:00;100768.00;;;15.98
77728;BMP280;68312;53.502;10.030;2023-07-31T07:17:28;100770.59;;;15.94
77728;BMP280;68312;53.502;10.030;2023-07-31T07:19:58;100757.06;;;15.99
77728;BMP280;68312;53.502;10.030;2023-07-31T07:22:24;100761.25;;;16.00
77728;BMP280;68312;53.502;10.030;2023-07-31T07:24:49;100757.88;;;16.03
77728;BMP280;68312;53.502;10.030;2023-07-31T07:27:15;100761.59;;;15.99
77728;BMP280;68312;53.502;10.030;2023-07-31T07:29:40;100759.88;;;16.06
77728;BMP280;68312;53.502;10.030;2023-07-31T07:32:06;100761.03;;;16.08
77728;BMP280;68312;53.502;10.030;2023-07-31T07:34:32;100757.25;;;16.09
77728;BMP280;68312;53.502;10.030;2023-07-31T07:36:57;100755.53;;;16.17
77728;BMP280;68312;53.502;10.030;2023-07-31T07:39:23;100744.91;;;16.17
77728;BMP280;68312;53.502;10.030;2023-07-31T07:41:48;100753.47;;;16.29
77728;BMP280;68312;53.502;10.030;2023-07-31T07:44:14;100747.50;;;16.35
77728;BMP280;68312;53.502;10.030;2023-07-31T07:46:40;100751.78;;;16.43
77728;BMP280;68312;53.502;10.030;2023-07-31T07:49:06;100736.78;;;16.51
77728;BMP280;68312;53.502;10.030;2023-07-31T07:55:09;100745.50;;;16.77
77728;BMP280;68312;53.502;10.030;2023-07-31T07:57:35;100746.84;;;16.89
77728;BMP280;68312;53.502;10.030;2023-07-31T08:00:00;100744.06;;;17.08
77728;BMP280;68312;53.502;10.030;2023-07-31T08:02:25;100735.78;;;17.10
77728;BMP280;68312;53.502;10.030;2023-07-31T08:04:51;100730.63;;;17.23
77728;BMP280;68312;53.502;10.030;2023-07-31T08:07:16;100733.34;;;17.27
77728;BMP280;68312;53.502;10.030;2023-07-31T08:09:41;100731.78;;;17.26
77728;BMP280;68312;53.502;10.030;2023-07-31T08:12:07;100718.81;;;17.17
77728;BMP280;68312;53.502;10.030;2023-07-31T08:14:33;100729.44;;;17.17
77728;BMP280;68312;53.502;10.030;2023-07-31T08:16:59;100716.50;;;17.16
77728;BMP280;68312;53.502;10.030;2023-07-31T08:19:25;100725.84;;;17.32
77728;BMP280;68312;53.502;10.030;2023-07-31T08:21:50;100712.91;;;17.34
77728;BMP280;68312;53.502;10.030;2023-07-31T08:24:16;100718.94;;;17.28
77728;BMP280;68312;53.502;10.030;2023-07-31T08:26:41;100710.88;;;17.21
77728;BMP280;68312;53.502;10.030;2023-07-31T08:29:07;100710.09;;;17.20
77728;BMP280;68312;53.502;10.030;2023-07-31T08:31:32;100705.91;;;17.19
77728;BMP280;68312;53.502;10.030;2023-07-31T08:33:58;100703.81;;;17.32
77728;BMP280;68312;53.502;10.030;2023-07-31T08:36:23;100694.44;;;17.41
77728;BMP280;68312;53.502;10.030;2023-07-31T08:38:49;100691.13;;;17.51
77728;BMP280;68312;53.502;10.030;2023-07-31T08:41:15;100689.66;;;17.53
77728;BMP280;68312;53.502;10.030;2023-07-31T08:43:45;100681.03;;;17.67
77728;BMP280;68312;53.502;10.030;2023-07-31T08:46:11;100687.19;;;17.74
77728;BMP280;68312;53.502;10.030;2023-07-31T08:48:42;100684.59;;;17.81
77728;BMP280;68312;53.502;10.030;2023-07-31T08:51:09;100687.63;;;17.79
77728;BMP280;68312;53.502;10.030;2023-07-31T08:53:35;100680.88;;;17.89
77728;BMP280;68312;53.502;10.030;2023-07-31T08:56:02;100674.78;;;17.85
77728;BMP280;68312;53.502;10.030;2023-07-31T08:58:31;100688.97;;;18.02
77728;BMP280;68312;53.502;10.030;2023-07-31T09:00:58;100684.78;;;18.01
77728;BMP280;68312;53.502;10.030;2023-07-31T09:03:28;100684.78;;;18.01
77728;BMP280;68312;53.502;10.030;2023-07-31T09:05:58;100680.88;;;17.89
77728;BMP280;68312;53.502;10.030;2023-07-31T09:08:26;100680.03;;;17.78
77728;BMP280;68312;53.502;10.030;2023-07-31T09:10:59;100676.50;;;17.67
77728;BMP280;68312;53.502;10.030;2023-07-31T09:13:28;100676.03;;;17.58
77728;BMP280;68312;53.502;10.030;2023-07-31T09:15:54;100675.53;;;17.46
77728;BMP280;68312;53.502;10.030;2023-07-31T09:18:20;100669.84;;;17.47
77728;BMP280;68312;53.502;10.030;2023-07-31T09:21:20;100678.69;;;17.26
77728;BMP280;68312;53.502;10.030;2023-07-31T09:23:46;100668.09;;;17.29
77728;BMP280;68312;53.502;10.030;2023-07-31T09:29:19;100666.72;;;17.39
77728;BMP280;68312;53.502;10.030;2023-07-31T09:31:45;100666.00;;;17.41
77728;BMP280;68312;53.502;10.030;2023-07-31T09:34:10;100665.53;;;17.33
77728;BMP280;68312;53.502;10.030;2023-07-31T09:36:41;100667.00;;;17.34
77728;BMP280;68312;53.502;10.030;2023-07-31T09:39:12;100650.78;;;17.39
77728;BMP280;68312;53.502;10.030;2023-07-31T09:41:39;100646.19;;;17.36
77728;BMP280;68312;53.502;10.030;2023-07-31T09:44:07;100642.44;;;17.37
77728;BMP280;68312;53.502;10.030;2023-07-31T09:46:35;100642.13;;;17.45
77728;BMP280;68312;53.502;10.030;2023-07-31T09:49:09;100641.47;;;17.51
77728;BMP280;68312;53.502;10.030;2023-07-31T09:51:39;100633.03;;;17.46
77728;BMP280;68312;53.502;10.030;2023-07-31T09:54:15;100620.59;;;17.53
77728;BMP280;68312;53.502;10.030;2023-07-31T09:56:48;100620.66;;;17.64
77728;BMP280;68312;53.502;10.030;2023-07-31T09:59:16;100634.34;;;17.66
77728;BMP280;68312;53.502;10.030;2023-07-31T10:01:44;100632.72;;;17.54
77728;BMP280;68312;53.502;10.030;2023-07-31T10:04:12;100622.75;;;17.41
77728;BMP280;68312;53.502;10.030;2023-07-31T10:06:39;100625.41;;;17.44
77728;BMP280;68312;53.502;10.030;2023-07-31T10:09:08;100616.66;;;17.40
77728;BMP280;68312;53.502;10.030;2023-07-31T10:11:44;100622.28;;;17.36
77728;BMP280;68312;53.502;10.030;2023-07-31T10:14:20;100611.66;;;17.36
77728;BMP280;68312;53.502;10.030;2023-07-31T10:16:47;100617.25;;;17.24
77728;BMP280;68312;53.502;10.030;2023-07-31T10:19:13;100630.00;;;17.12
77728;BMP280;68312;53.502;10.030;2023-07-31T10:21:39;100616.28;;;17.06
77728;BMP280;68312;53.502;10.030;2023-07-31T10:24:06;100628.38;;;17.04
77728;BMP280;68312;53.502;10.030;2023-07-31T10:26:35;100616.56;;;16.98
77728;BMP280;68312;53.502;10.030;2023-07-31T10:29:03;100617.69;;;17.00
77728;BMP280;68312;53.502;10.030;2023-07-31T10:31:30;100601.09;;;17.03
77728;BMP280;68312;53.502;10.030;2023-07-31T10:33:57;100602.09;;;16.95
77728;BMP280;68312;53.502;10.030;2023-07-31T10:36:24;100607.41;;;16.95
77728;BMP280;68312;53.502;10.030;2023-07-31T10:38:49;100608.47;;;16.87
77728;BMP280;68312;53.502;10.030;2023-07-31T10:41:18;100610.53;;;17.01
77728;BMP280;68312;53.502;10.030;2023-07-31T10:43:46;100601.88;;;17.07
77728;BMP280;68312;53.502;10.030;2023-07-31T10:46:13;100600.44;;;17.13
77728;BMP280;68312;53.502;10.030;2023-07-31T10:48:40;100595.16;;;17.16
77728;BMP280;68312;53.502;10.030;2023-07-31T10:51:12;100591.00;;;17.19
77728;BMP280;68312;53.502;10.030;2023-07-31T10:53:39;100595.41;;;17.37
77728;BMP280;68312;53.502;10.030;2023-07-31T10:56:08;100590.16;;;17.47
77728;BMP280;68312;53.502;10.030;2023-07-31T10:58:36;100575.19;;;17.68
77728;BMP280;68312;53.502;10.030;2023-07-31T11:01:04;100585.19;;;17.85
77728;BMP280;68312;53.502;10.030;2023-07-31T11:03:43;100585.38;;;18.06
77728;BMP280;68312;53.502;10.030;2023-07-31T11:06:12;100579.72;;;18.24
77728;BMP280;68312;53.502;10.030;2023-07-31T11:08:47;100577.16;;;18.35
77728;BMP280;68312;53.502;10.030;2023-07-31T11:11:33;100571.75;;;18.24
77728;BMP280;68312;53.502;10.030;2023-07-31T11:13:58;100561.13;;;18.21
77728;BMP280;68312;53.502;10.030;2023-07-31T11:16:25;100571.41;;;18.26
77728;BMP280;68312;53.502;10.030;2023-07-31T11:18:52;100567.63;;;18.27
77728;BMP280;68312;53.502;10.030;2023-07-31T11:21:22;100569.88;;;18.25
77728;BMP280;68312;53.502;10.030;2023-07-31T11:23:53;100562.56;;;18.08
77728;BMP280;68312;53.502;10.030;2023-07-31T11:26:23;100558.78;;;18.06
77728;BMP280;68312;53.502;10.030;2023-07-31T11:28:50;100555.72;;;18.07
77728;BMP280;68312;53.502;10.030;2023-07-31T11:31:17;100554.63;;;18.15
77728;BMP280;68312;53.502;10.030;2023-07-31T11:33:44;100558.78;;;18.09
77728;BMP280;68312;53.502;10.030;2023-07-31T11:36:19;100565.88;;;17.92
77728;BMP280;68312;53.502;10.030;2023-07-31T11:38:46;100554.03;;;17.82
77728;BMP280;68312;53.502;10.030;2023-07-31T11:41:14;100550.25;;;17.87
77728;BMP280;68312;53.502;10.030;2023-07-31T11:43:41;100550.97;;;17.77
77728;BMP280;68312;53.502;10.030;2023-07-31T11:46:07;100555.16;;;17.81
77728;BMP280;68312;53.502;10.030;2023-07-31T11:48:34;100554.84;;;17.90
77728;BMP280;68312;53.502;10.030;2023-07-31T11:51:04;100546.50;;;17.88
77728;BMP280;68312;53.502;10.030;2023-07-31T11:56:07;100546.88;;;17.90
77728;BMP280;68312;53.502;10.030;2023-07-31T11:58:36;100546.34;;;17.70
77728;BMP280;68312;53.502;10.030;2023-07-31T12:01:02;100549.88;;;17.85
77728;BMP280;68312;53.502;10.030;2023-07-31T12:03:28;100549.53;;;17.90
77728;BMP280;68312;53.502;10.030;2023-07-31T12:05:54;100540.41;;;17.91
77728;BMP280;68312;53.502;10.030;2023-07-31T12:08:24;100541.97;;;17.95
77728;BMP280;68312;53.502;10.030;2023-07-31T12:10:50;100546.56;;;18.01
77728;BMP280;68312;53.502;10.030;2023-07-31T12:13:26;100548.09;;;18.02
77728;BMP280;68312;53.502;10.030;2023-07-31T12:15:56;100545.44;;;18.02
77728;BMP280;68312;53.502;10.030;2023-07-31T12:18:25;100543.06;;;17.91
77728;BMP280;68312;53.502;10.030;2023-07-31T12:20:57;100543.50;;;17.93
77728;BMP280;68312;53.502;10.030;2023-07-31T12:23:29;100533.66;;;18.00
77728;BMP280;68312;53.502;10.030;2023-07-31T12:26:17;100528.75;;;18.05
77728;BMP280;68312;53.502;10.030;2023-07-31T12:28:45;100529.13;;;18.07
77728;BMP280;68312;53.502;10.030;2023-07-31T12:31:13;100533.75;;;18.10
77728;BMP280;68312;53.502;10.030;2023-07-31T12:33:44;100531.09;;;18.10
77728;BMP280;68312;53.502;10.030;2023-07-31T12:36:13;100519.28;;;18.11
77728;BMP280;68312;53.502;10.030;2023-07-31T12:38:40;100514.72;;;18.12
77728;BMP280;68312;53.502;10.030;2023-07-31T12:41:06;100512.50;;;18.17
77728;BMP280;68312;53.502;10.030;2023-07-31T12:43:32;100511.34;;;18.15
77728;BMP280;68312;53.502;10.030;2023-07-31T12:45:58;100503.78;;;18.23
77728;BMP280;68312;53.502;10.030;2023-07-31T12:48:24;100507.22;;;18.24
77728;BMP280;68312;53.502;10.030;2023-07-31T12:50:50;100499.97;;;18.24
77728;BMP280;68312;53.502;10.030;2023-07-31T12:53:15;100497.75;;;18.33
77728;BMP280;68312;53.502;10.030;2023-07-31T12:55:42;100493.19;;;18.34
77728;BMP280;68312;53.502;10.030;2023-07-31T12:58:07;100493.94;;;18.27
77728;BMP280;68312;53.502;10.030;2023-07-31T13:00:33;100502.69;;;18.35
77728;BMP280;68312;53.502;10.030;2023-07-31T13:02:59;100485.63;;;18.43
77728;BMP280;68312;53.502;10.030;2023-07-31T13:05:26;100483.69;;;18.33
77728;BMP280;68312;53.502;10.030;2023-07-31T13:07:52;100478.41;;;18.43
77728;BMP280;68312;53.502;10.030;2023-07-31T13:10:17;100491.72;;;18.46
77728;BMP280;68312;53.502;10.030;2023-07-31T13:12:42;100478.03;;;18.45
77728;BMP280;68312;53.502;10.030;2023-07-31T13:15:08;100475.75;;;18.43
77728;BMP280;68312;53.502;10.030;2023-07-31T13:17:35;100468.91;;;18.42
77728;BMP280;68312;53.502;10.030;2023-07-31T13:20:01;100472.31;;;18.43
77728;BMP280;68312;53.502;10.030;2023-07-31T13:22:28;100474.19;;;18.32
77728;BMP280;68312;53.502;10.030;2023-07-31T13:24:54;100477.59;;;18.29
77728;BMP280;68312;53.502;10.030;2023-07-31T13:27:19;100477.97;;;18.24
77728;BMP280;68312;53.502;10.030;2023-07-31T13:29:47;100481.00;;;18.26
77728;BMP280;68312;53.502;10.030;2023-07-31T13:32:15;100471.53;;;18.32
77728;BMP280;68312;53.502;10.030;2023-07-31T13:34:42;100470.78;;;18.35
77728;BMP280;68312;53.502;10.030;2023-07-31T13:37:07;100470.03;;;18.38
77728;BMP280;68312;53.502;10.030;2023-07-31T13:39:32;100464.75;;;18.48
77728;BMP280;68312;53.502;10.030;2023-07-31T13:42:04;100456.81;;;18.58
77728;BMP280;68312;53.502;10.030;2023-07-31T13:44:33;100454.16;;;18.65
77728;BMP280;68312;53.502;10.030;2023-07-31T13:46:59;100448.84;;;18.65
77728;BMP280;68312;53.502;10.030;2023-07-31T13:49:26;100451.91;;;18.77
77728;BMP280;68312;53.502;10.030;2023-07-31T13:51:52;100448.09;;;18.82
77728;BMP280;68312;53.502;10.030;2023-07-31T13:54:19;100437.47;;;18.92
77728;BMP280;68312;53.502;10.030;2023-07-31T13:56:45;100440.50;;;18.91
77728;BMP280;68312;53.502;10.030;2023-07-31T13:59:11;100434.41;;;18.90
77728;BMP280;68312;53.502;10.030;2023-07-31T14:01:36;100427.94;;;18.91
77728;BMP280;68312;53.502;10.030;2023-07-31T14:04:02;100425.69;;;19.10
77728;BMP280;68312;53.502;10.030;2023-07-31T14:06:28;100422.63;;;19.15
77728;BMP280;68312;53.502;10.030;2023-07-31T14:08:53;100426.06;;;19.19
77728;BMP280;68312;53.502;10.030;2023-07-31T14:11:19;100423.75;;;19.21
77728;BMP280;68312;53.502;10.030;2023-07-31T14:13:44;100420.38;;;18.97